Time;durP1;ratioP1;P1;durP2;ratioP2;P2;SDS_P1;SDS_P2;PMS_P1;PMS_P2;Temp;Humidity;BMP_temperature;BMP_pressure;BME280_temperature;BME280_humidity;BME280_pressure;Samples;Min_cycle;Max_cycle;Signal;HPM_P1;HPM_P2
2023/09/06 00:02:07;;;;;;;3.42;3.13;;;;;;;17.39;100.00;64798.03;5050290;28;20304;-53
2023/09/06 00:04:33;;;;;;;3.55;3.08;;;;;;;17.38;100.00;64796.38;5051783;28;20196;-54
2023/09/06 00:06:59;;;;;;;4.05;3.40;;;;;;;17.38;100.00;64796.38;5051331;28;20320;-53
2023/09/06 00:09:25;;;;;;;3.60;3.30;;;;;;;17.27;100.00;64781.72;5036310;28;20713;-54
2023/09/06 00:11:50;;;;;;;4.90;3.75;;;;;;;17.27;100.00;64781.72;5054560;28;20229;-55
2023/09/06 00:14:16;;;;;;;6.07;3.25;;;;;;;17.33;100.00;64790.88;5053138;28;20597;-52
2023/09/06 00:16:46;;;;;;;4.78;3.40;;;;;;;17.36;100.00;64794.75;5053206;28;20256;-53
2023/09/06 00:19:12;;;;;;;4.47;3.63;;;;;;;17.39;100.00;64797.50;5054506;28;20197;-55
2023/09/06 00:21:47;;;;;;;7.05;3.67;;;;;;;17.50;100.00;64809.63;5052919;28;20263;-55
2023/09/06 00:24:14;;;;;;;5.15;3.42;;;;;;;17.50;100.00;64810.19;5053357;28;20288;-52
2023/09/06 00:26:40;;;;;;;3.83;3.33;;;;;;;17.38;100.00;64796.38;5053170;28;20527;-53
2023/09/06 00:29:09;;;;;;;3.33;2.92;;;;;;;17.41;100.00;64800.22;5053318;28;20658;-53
2023/09/06 00:31:35;;;;;;;4.25;3.85;;;;;;;17.32;100.00;64792.88;5053451;28;20742;-52
2023/09/06 00:34:01;;;;;;;4.38;3.47;;;;;;;17.40;100.00;64799.16;5035660;28;20343;-55
2023/09/06 00:36:29;;;;;;;4.15;3.65;;;;;;;17.49;100.00;64806.00;5051936;28;20817;-54
2023/09/06 00:38:56;;;;;;;3.80;3.40;;;;;;;17.32;100.00;64790.31;5054763;28;20284;-52
2023/09/06 00:41:26;;;;;;;4.68;3.63;;;;;;;17.41;100.00;64799.69;5053204;28;20218;-53
2023/09/06 00:43:52;;;;;;;4.32;3.80;;;;;;;17.45;100.00;64801.56;5034073;28;20197;-55
2023/09/06 00:46:19;;;;;;;6.00;4.05;;;;;;;17.36;100.00;64794.75;5052594;28;20212;-55
2023/09/06 00:48:50;;;;;;;3.80;3.42;;;;;;;17.37;100.00;64795.81;5052522;28;20278;-52
2023/09/06 00:51:20;;;;;;;3.97;3.60;;;;;;;17.36;100.00;64794.75;5052968;28;20228;-53
2023/09/06 00:53:48;;;;;;;6.55;3.88;;;;;;;17.36;100.00;64796.72;5053184;28;20201;-58
2023/09/06 00:56:14;;;;;;;5.85;3.78;;;;;;;17.36;100.00;64794.19;5053163;28;20210;-53
2023/09/06 00:58:40;;;;;;;4.50;3.65;;;;;;;17.39;100.00;64800.59;5053002;28;20240;-56
2023/09/06 01:01:06;;;;;;;5.80;3.47;;;;;;;17.41;100.00;64799.69;5052504;28;20197;-54
2023/09/06 01:03:32;;;;;;;5.35;3.85;;;;;;;17.32;100.00;64792.31;5054131;28;20198;-55
2023/09/06 01:06:05;;;;;;;4.57;3.90;;;;;;;17.34;100.00;64791.97;5053138;28;20280;-52
2023/09/06 01:08:55;;;;;;;4.95;3.35;;;;;;;17.33;100.00;64791.41;5050744;28;20376;-52
2023/09/06 01:11:22;;;;;;;4.53;3.88;;;;;;;17.40;100.00;64798.59;5052598;28;20587;-52
2023/09/06 01:13:53;;;;;;;5.82;3.45;;;;;;;17.46;100.00;64807.75;5052356;28;20210;-55
2023/09/06 01:16:40;;;;;;;5.00;3.67;;;;;;;17.44;100.00;64803.56;5062193;22;20219;-55
2023/09/06 01:19:09;;;;;;;4.90;3.60;;;;;;;17.36;100.00;64796.72;5070238;28;20697;-54
2023/09/06 01:21:47;;;;;;;5.70;3.60;;;;;;;17.56;100.00;64816.25;5068888;28;20202;-56
2023/09/06 01:24:15;;;;;;;5.15;3.72;;;;;;;17.50;100.00;64812.19;5034970;28;20209;-54
2023/09/06 01:26:41;;;;;;;6.57;4.32;;;;;;;17.45;100.00;64806.66;5052357;28;20233;-53
2023/09/06 01:29:08;;;;;;;7.18;3.95;;;;;;;17.52;100.00;64814.38;5051072;28;20687;-53
2023/09/06 01:31:33;;;;;;;4.40;3.65;;;;;;;17.49;100.00;64809.06;5053184;28;20214;-53
2023/09/06 01:33:59;;;;;;;4.88;4.38;;;;;;;17.43;100.00;64802.44;5052964;28;20204;-55
2023/09/06 01:36:25;;;;;;;4.72;3.90;;;;;;;17.43;100.00;64799.34;5050233;28;20210;-55
2023/09/06 01:38:51;;;;;;;4.50;3.83;;;;;;;17.41;100.00;64802.25;5051427;28;20350;-52
2023/09/06 01:41:17;;;;;;;4.72;3.65;;;;;;;17.51;100.00;64813.81;5051507;28;20265;-55
2023/09/06 01:43:42;;;;;;;9.15;3.65;;;;;;;17.53;100.00;64816.03;5051687;28;20220;-55
2023/09/06 01:46:08;;;;;;;10.38;4.38;;;;;;;17.57;100.00;64817.88;5052540;28;20217;-55
2023/09/06 01:48:34;;;;;;;6.25;3.83;;;;;;;17.42;100.00;64801.34;5053631;28;20267;-55
2023/09/06 01:50:59;;;;;;;7.05;4.05;;;;;;;17.45;100.00;64806.66;5051306;28;20217;-55
2023/09/06 01:53:25;;;;;;;5.55;3.42;;;;;;;17.44;100.00;64803.00;5034482;28;20228;-53
2023/09/06 01:55:50;;;;;;;5.10;4.25;;;;;;;17.41;100.00;64797.69;5052803;28;20240;-54
2023/09/06 01:58:16;;;;;;;8.45;3.80;;;;;;;17.58;100.00;64821.00;5052420;28;20228;-55
2023/09/06 02:00:44;;;;;;;6.63;3.42;;;;;;;17.48;100.00;64809.94;5051830;28;20197;-54
2023/09/06 02:03:16;;;;;;;4.70;3.42;;;;;;;17.39;100.00;64797.50;5034519;28;20221;-55
2023/09/06 02:05:42;;;;;;;8.27;4.40;;;;;;;17.33;100.00;64790.88;5051890;28;20201;-53
2023/09/06 02:08:08;;;;;;;4.32;3.83;;;;;;;17.31;100.00;64789.22;5051355;28;20306;-52
2023/09/06 02:10:34;;;;;;;3.95;3.65;;;;;;;17.32;100.00;64790.31;5052307;28;20244;-51
2023/09/06 02:12:59;;;;;;;4.18;3.60;;;;;;;17.37;100.00;64795.28;5051356;28;20206;-54
2023/09/06 02:15:25;;;;;;;4.07;3.22;;;;;;;17.39;100.00;64800.03;5050244;28;20181;-53
2023/09/06 02:17:51;;;;;;;4.80;3.70;;;;;;;17.39;100.00;64800.59;5049752;28;20266;-52
2023/09/06 02:22:42;;;;;;;4.70;3.70;;;;;;;17.30;100.00;64788.13;5053495;28;20213;-52
2023/09/06 02:25:14;;;;;;;4.65;3.33;;;;;;;17.31;100.00;64786.66;5035394;28;20272;-53
2023/09/06 02:27:40;;;;;;;4.60;3.47;;;;;;;17.24;100.00;64778.41;5035417;28;20269;-53
2023/09/06 02:30:14;;;;;;;5.53;4.20;;;;;;;17.23;100.00;64779.88;5053225;28;20225;-53
2023/09/06 02:32:40;;;;;;;5.80;3.80;;;;;;;17.23;100.00;64779.88;5053267;28;20229;-51
2023/09/06 02:35:07;;;;;;;5.45;3.75;;;;;;;17.20;100.00;64776.56;5053065;28;20266;-51
2023/09/06 02:37:35;;;;;;;4.10;3.65;;;;;;;17.19;100.00;64772.91;5053334;28;20210;-51
2023/09/06 02:40:06;;;;;;;5.63;3.88;;;;;;;17.30;100.00;64790.66;5053143;28;20211;-51
2023/09/06 02:42:32;;;;;;;5.28;3.60;;;;;;;17.37;100.00;64795.28;5053068;28;20359;-50
2023/09/06 02:44:58;;;;;;;5.03;4.18;;;;;;;17.25;100.00;64784.63;5052939;28;20316;-51
2023/09/06 02:47:28;;;;;;;4.72;3.92;;;;;;;17.19;100.00;64778.53;5053123;28;20722;-51
2023/09/06 02:49:55;;;;;;;6.78;3.95;;;;;;;17.22;100.00;64778.75;5053293;28;20208;-52
2023/09/06 02:52:30;;;;;;;8.82;3.75;;;;;;;17.07;100.00;64762.25;5052645;28;20225;-53
2023/09/06 02:55:03;;;;;;;5.75;3.75;;;;;;;17.10;100.00;64760.44;5052858;28;20208;-55
2023/09/06 02:57:30;;;;;;;7.72;4.22;;;;;;;17.29;100.00;64786.47;5052691;28;20210;-53
2023/09/06 02:59:55;;;;;;;6.22;4.13;;;;;;;17.25;100.00;64784.63;5052695;28;20263;-53
2023/09/06 03:02:24;;;;;;;6.20;4.05;;;;;;;17.06;100.00;64761.13;5053189;28;20271;-52
2023/09/06 03:05:03;;;;;;;4.63;3.55;;;;;;;17.12;100.00;64765.19;5034895;28;20209;-52
2023/09/06 03:07:33;;;;;;;6.30;3.85;;;;;;;17.05;100.00;64763.13;5034970;28;20217;-51
2023/09/06 03:09:59;;;;;;;10.75;4.53;;;;;;;17.03;100.00;64760.91;5052500;28;20214;-51
2023/09/06 03:12:24;;;;;;;4.25;3.85;;;;;;;16.96;100.00;64747.56;5052626;28;20220;-52
2023/09/06 03:14:50;;;;;;;4.60;3.85;;;;;;;16.93;100.00;64746.81;5034868;28;20233;-51
2023/09/06 03:17:18;;;;;;;6.45;3.95;;;;;;;17.01;100.00;64755.63;5054793;28;20213;-56
2023/09/06 03:19:45;;;;;;;8.30;4.35;;;;;;;17.06;100.00;64761.13;5054313;28;20202;-56
2023/09/06 03:22:12;;;;;;;5.57;4.10;;;;;;;17.05;100.00;64760.03;5037146;28;20244;-53
2023/09/06 03:24:41;;;;;;;6.97;4.25;;;;;;;17.04;100.00;64759.47;5055002;28;20205;-54
2023/09/06 03:27:08;;;;;;;6.80;4.47;;;;;;;17.12;100.00;64767.75;5054745;28;20729;-56
2023/09/06 03:29:38;;;;;;;5.38;4.25;;;;;;;17.15;100.00;64769.03;5055244;28;20654;-59
2023/09/06 03:32:09;;;;;;;6.35;4.30;;;;;;;17.15;100.00;64774.13;5054101;28;20241;-53
2023/09/06 03:34:40;;;;;;;5.18;4.68;;;;;;;17.14;100.00;64773.03;5053646;28;20258;-56
2023/09/06 03:37:08;;;;;;;4.72;4.15;;;;;;;17.09;100.00;64762.44;5020690;28;20713;-56
2023/09/06 03:39:37;;;;;;;5.25;4.22;;;;;;;16.91;100.00;64744.63;5037427;28;20213;-51
2023/09/06 03:42:08;;;;;;;5.13;3.88;;;;;;;16.92;100.00;64743.72;5055569;28;20209;-54
2023/09/06 03:44:35;;;;;;;4.50;4.03;;;;;;;17.00;100.00;64757.63;5053824;28;20335;-52
2023/09/06 03:47:04;;;;;;;7.00;4.30;;;;;;;17.03;100.00;64755.28;5057298;28;20206;-58
2023/09/06 03:49:35;;;;;;;5.88;4.20;;;;;;;17.10;100.00;64768.09;5038756;28;20182;-54
2023/09/06 03:52:04;;;;;;;7.30;4.57;;;;;;;17.10;100.00;64771.19;5053760;28;20362;-56
2023/09/06 03:54:29;;;;;;;6.60;4.63;;;;;;;17.12;100.00;64765.19;5054713;28;20216;-53
2023/09/06 03:56:55;;;;;;;4.97;4.05;;;;;;;17.08;100.00;64760.78;5054674;28;20202;-51
2023/09/06 03:59:21;;;;;;;5.43;4.32;;;;;;;17.07;100.00;64762.78;5053649;28;20221;-56
2023/09/06 04:01:48;;;;;;;6.45;4.88;;;;;;;17.12;100.00;64770.28;5053044;28;20220;-54
2023/09/06 04:04:14;;;;;;;7.80;3.80;;;;;;;17.17;100.00;64773.25;5053567;28;20209;-54
2023/09/06 04:06:43;;;;;;;5.65;4.53;;;;;;;17.12;100.00;64770.28;5054237;28;20209;-55
2023/09/06 04:09:13;;;;;;;6.70;4.65;;;;;;;17.12;100.00;64765.75;5052967;28;20201;-52
2023/09/06 04:11:42;;;;;;;4.95;4.45;;;;;;;17.24;100.00;64783.50;5053897;28;20387;-54
2023/09/06 04:14:08;;;;;;;7.85;4.43;;;;;;;17.25;100.00;64782.06;5052696;28;20262;-52
2023/09/06 04:16:37;;;;;;;6.97;4.55;;;;;;;17.28;100.00;64787.91;5053342;28;20209;-58
2023/09/06 04:19:02;;;;;;;4.93;4.03;;;;;;;17.40;100.00;64799.16;5055520;28;20205;-52
2023/09/06 04:21:28;;;;;;;6.68;4.57;;;;;;;17.32;100.00;64792.31;5036636;28;20289;-56
2023/09/06 04:23:54;;;;;;;5.85;4.60;;;;;;;17.31;100.00;64791.75;5054613;28;20276;-53
2023/09/06 04:26:20;;;;;;;6.47;3.88;;;;;;;17.43;100.00;64802.44;5052693;28;20641;-52
2023/09/06 04:28:46;;;;;;;6.43;4.50;;;;;;;17.37;100.00;64795.28;5034791;28;20201;-54
2023/09/06 04:31:11;;;;;;;4.35;3.90;;;;;;;17.39;100.00;64800.59;5053480;28;20646;-56
2023/09/06 04:33:37;;;;;;;6.72;4.28;;;;;;;17.48;100.00;64804.84;5052570;28;20292;-55
2023/09/06 04:36:04;;;;;;;5.40;4.50;;;;;;;17.45;100.00;64804.09;5052280;28;20204;-54
2023/09/06 04:38:31;;;;;;;8.95;4.47;;;;;;;17.59;100.00;64819.56;5052910;28;20786;-53
2023/09/06 04:40:58;;;;;;;7.15;4.70;;;;;;;17.50;100.00;64807.09;5052326;28;20241;-52
2023/09/06 04:43:25;;;;;;;6.47;4.00;;;;;;;17.59;100.00;64817.53;5052310;28;20193;-52
2023/09/06 04:45:51;;;;;;;7.68;3.72;;;;;;;17.78;100.00;64842.47;5054343;28;20180;-54
2023/09/06 04:48:17;;;;;;;6.07;4.85;;;;;;;17.76;100.00;64835.72;5054350;28;20212;-54
2023/09/06 04:50:45;;;;;;;5.90;4.38;;;;;;;17.60;100.00;64818.09;5036002;28;20345;-53
2023/09/06 04:53:17;;;;;;;4.72;4.22;;;;;;;17.81;100.00;64840.69;5035893;28;20214;-51
2023/09/06 04:55:42;;;;;;;5.90;4.30;;;;;;;17.84;100.00;64849.66;5052979;28;20206;-53
2023/09/06 04:58:09;;;;;;;5.13;4.00;;;;;;;18.06;100.00;64868.81;5053599;28;20205;-50
2023/09/06 05:00:38;;;;;;;6.50;4.38;;;;;;;18.10;100.00;64875.75;5035705;28;20220;-53
2023/09/06 05:03:10;;;;;;;9.30;4.47;;;;;;;18.23;100.00;64890.13;5054754;28;20221;-52
2023/09/06 05:05:37;;;;;;;8.00;4.68;;;;;;;18.11;100.00;64874.31;5054376;28;20201;-53
2023/09/06 05:08:04;;;;;;;6.10;4.53;;;;;;;18.03;100.00;64870.06;5054778;28;20209;-54
2023/09/06 05:10:30;;;;;;;5.68;4.22;;;;;;;18.01;100.00;64868.41;5052986;28;20639;-54
2023/09/06 05:12:56;;;;;;;8.13;4.68;;;;;;;18.14;100.00;64880.19;5053057;28;20683;-52
2023/09/06 05:15:22;;;;;;;8.13;4.18;;;;;;;18.19;100.00;64888.25;5054179;28;20202;-52
2023/09/06 05:17:48;;;;;;;8.18;4.10;;;;;;;18.17;100.00;64880.94;5053691;28;20224;-54
2023/09/06 05:20:33;;;;;;;9.70;5.43;;;;;;;18.28;100.00;64892.53;5052541;28;20206;-51
2023/09/06 05:23:10;;;;;;;7.85;4.30;;;;;;;18.20;100.00;64886.78;5050574;28;20300;-51
2023/09/06 05:25:38;;;;;;;5.80;4.45;;;;;;;18.18;100.00;64882.03;5050399;28;20205;-51
2023/09/06 05:28:08;;;;;;;7.88;4.55;;;;;;;18.23;100.00;64889.56;5050626;28;20255;-51
2023/09/06 05:30:38;;;;;;;6.55;4.70;;;;;;;18.27;100.00;64891.41;5032293;28;20251;-51
2023/09/06 05:33:05;;;;;;;9.23;5.00;;;;;;;18.31;100.00;64898.38;5033082;28;20296;-50
2023/09/06 05:35:30;;;;;;;5.32;4.47;;;;;;;18.43;100.00;64912.19;5050566;28;20208;-53
2023/09/06 05:37:57;;;;;;;7.55;5.15;;;;;;;18.46;100.00;64911.84;5050569;28;20209;-51
2023/09/06 05:40:24;;;;;;;7.47;5.20;;;;;;;18.36;100.00;64903.91;5032773;28;20617;-52
2023/09/06 05:42:51;;;;;;;8.15;4.65;;;;;;;18.43;100.00;64914.19;5050339;28;20718;-51
2023/09/06 05:45:19;;;;;;;13.48;6.13;;;;;;;18.46;100.00;64914.94;5050345;28;20209;-51
2023/09/06 05:47:45;;;;;;;8.57;5.82;;;;;;;18.33;100.00;64898.59;5050304;28;20232;-51
2023/09/06 05:50:11;;;;;;;5.82;5.13;;;;;;;18.21;100.00;64887.91;5050333;28;20289;-53
2023/09/06 05:52:37;;;;;;;4.75;4.32;;;;;;;18.17;100.00;64883.50;5050224;28;20606;-52
2023/09/06 05:55:03;;;;;;;7.00;4.32;;;;;;;18.21;100.00;64884.81;5049766;28;20200;-56
2023/09/06 05:57:30;;;;;;;6.57;4.43;;;;;;;18.21;100.00;64885.34;5050187;28;20335;-52
2023/09/06 05:59:57;;;;;;;8.20;4.93;;;;;;;18.29;100.00;64899.28;5050218;28;20278;-52
2023/09/06 06:02:24;;;;;;;8.93;4.57;;;;;;;18.28;100.00;64892.53;5032167;28;20289;-51
2023/09/06 06:04:52;;;;;;;5.35;4.60;;;;;;;18.27;100.00;64891.97;5032246;28;20670;-51
2023/09/06 06:07:18;;;;;;;5.53;4.15;;;;;;;18.35;100.00;64903.34;5050424;28;20300;-52
2023/09/06 06:09:44;;;;;;;9.18;4.80;;;;;;;18.37;100.00;64905.00;5032283;28;20683;-52
2023/09/06 06:12:10;;;;;;;4.65;3.90;;;;;;;18.34;100.00;64902.22;5032432;28;20232;-52
2023/09/06 06:14:37;;;;;;;9.93;4.30;;;;;;;18.48;100.00;64916.59;5050142;28;20208;-53
2023/09/06 06:17:05;;;;;;;5.03;3.97;;;;;;;18.42;100.00;64907.97;5049845;28;20237;-52
2023/09/06 06:19:32;;;;;;;7.63;3.85;;;;;;;18.42;100.00;64910.53;5032420;28;20695;-53
2023/09/06 06:22:01;;;;;;;9.18;4.93;;;;;;;18.48;100.00;64914.06;5032057;28;20223;-51
2023/09/06 06:24:27;;;;;;;10.15;5.32;;;;;;;18.49;100.00;64915.69;5050145;28;20206;-54
2023/09/06 06:26:53;;;;;;;7.35;4.20;;;;;;;18.61;100.00;64928.38;5032230;28;20220;-50
2023/09/06 06:29:18;;;;;;;6.07;4.18;;;;;;;18.68;100.00;64938.66;5050167;28;20271;-55
2023/09/06 06:31:44;;;;;;;6.45;4.50;;;;;;;18.62;100.00;64929.50;5049628;28;20221;-54
2023/09/06 06:37:41;;;;;;;6.57;4.05;;;;;;;18.74;100.00;64945.28;5001465;28;20634;-51
2023/09/06 06:40:09;;;;;;;5.75;4.13;;;;;;;18.80;100.00;64952.47;5032016;28;20284;-56
2023/09/06 06:42:35;;;;;;;7.82;3.50;;;;;;;18.84;100.00;64954.31;5049805;28;20205;-52
2023/09/06 06:45:03;;;;;;;14.50;4.70;;;;;;;18.86;100.00;64958.53;5049952;28;20178;-52
2023/09/06 06:47:29;;;;;;;6.18;4.10;;;;;;;18.87;100.00;64957.06;5049538;28;20244;-54
2023/09/06 06:49:54;;;;;;;5.68;4.20;;;;;;;18.91;100.00;64964.03;5049673;28;20691;-51
2023/09/06 06:52:20;;;;;;;9.65;5.10;;;;;;;18.85;100.00;64957.41;5049765;28;20225;-51
2023/09/06 06:54:52;;;;;;;8.15;4.05;;;;;;;18.98;99.41;64972.31;5049609;28;20595;-52
2023/09/06 06:57:18;;;;;;;4.97;3.80;;;;;;;18.97;99.85;64970.66;5048294;28;20268;-53
2023/09/06 06:59:44;;;;;;;7.70;4.07;;;;;;;19.06;99.28;64981.16;5031744;28;20213;-52
2023/09/06 07:02:10;;;;;;;8.50;4.10;;;;;;;19.01;100.00;64975.63;5049354;28;20699;-51
2023/09/06 07:04:36;;;;;;;7.03;3.92;;;;;;;19.14;98.96;64984.31;5049566;28;20204;-50
2023/09/06 07:07:01;;;;;;;9.15;6.45;;;;;;;19.18;100.00;64991.84;5050701;28;20293;-52
2023/09/06 07:09:27;;;;;;;7.18;4.53;;;;;;;19.26;98.88;65000.13;5052888;28;20280;-52
2023/09/06 07:11:53;;;;;;;7.85;4.65;;;;;;;19.21;100.00;64997.13;5052517;28;20213;-52
2023/09/06 07:14:20;;;;;;;6.60;4.18;;;;;;;19.32;99.33;65009.28;5053088;28;20671;-52
2023/09/06 07:16:46;;;;;;;13.35;4.78;;;;;;;19.41;98.09;65016.16;5052576;28;20202;-52
2023/09/06 07:19:12;;;;;;;5.13;4.18;;;;;;;19.48;98.30;65024.41;5034868;28;20204;-53
2023/09/06 07:21:38;;;;;;;5.38;4.70;;;;;;;19.56;96.50;65033.25;5052540;28;20695;-52
2023/09/06 07:24:05;;;;;;;9.82;4.60;;;;;;;19.41;97.68;65019.25;5052720;28;20229;-51
2023/09/06 07:26:30;;;;;;;6.82;4.80;;;;;;;19.62;97.34;65041.88;5052653;28;20209;-53
2023/09/06 07:28:57;;;;;;;5.13;4.25;;;;;;;19.65;98.18;65043.19;5052668;28;20220;-51
2023/09/06 07:31:22;;;;;;;22.33;14.00;;;;;;;19.65;99.04;65045.19;5052323;28;20263;-51
2023/09/06 07:33:48;;;;;;;6.85;5.15;;;;;;;19.73;99.08;65052.03;5052534;28;20282;-51
2023/09/06 07:36:14;;;;;;;4.25;3.70;;;;;;;19.61;97.82;65038.78;5052362;28;20217;-56
2023/09/06 07:38:40;;;;;;;5.18;3.80;;;;;;;19.64;99.56;65044.66;5052425;28;20198;-52
2023/09/06 07:41:11;;;;;;;7.35;5.22;;;;;;;19.76;97.75;65052.78;5052189;28;20204;-52
2023/09/06 07:43:37;;;;;;;6.53;4.63;;;;;;;19.72;98.48;65050.91;5052584;28;20176;-52
2023/09/06 07:46:12;;;;;;;5.75;4.38;;;;;;;19.77;96.26;65056.44;5050783;28;20201;-52
2023/09/06 07:48:38;;;;;;;6.95;4.72;;;;;;;20.06;92.59;65091.03;5052113;28;20213;-51
2023/09/06 07:51:04;;;;;;;5.95;4.63;;;;;;;20.12;93.13;65096.56;5051713;28;20240;-50
2023/09/06 07:53:30;;;;;;;5.43;4.32;;;;;;;20.19;93.34;65102.31;5051890;28;20621;-52
2023/09/06 07:55:56;;;;;;;6.78;3.95;;;;;;;20.19;89.77;65102.31;5052027;28;20225;-51
2023/09/06 07:58:22;;;;;;;7.78;3.95;;;;;;;20.22;89.56;65105.06;5051914;28;20589;-51
2023/09/06 08:00:50;;;;;;;8.98;5.25;;;;;;;20.39;90.18;65126.97;5033991;28;20749;-51
2023/09/06 08:03:16;;;;;;;7.85;4.65;;;;;;;20.51;87.38;65137.66;5034039;28;20676;-52
2023/09/06 08:05:41;;;;;;;9.75;4.38;;;;;;;20.54;87.74;65140.44;5051924;28;20292;-51
2023/09/06 08:08:09;;;;;;;7.80;4.15;;;;;;;20.56;87.39;65143.19;5033742;28;20210;-52
2023/09/06 08:10:39;;;;;;;8.50;4.97;;;;;;;20.84;87.40;65173.59;5051629;28;20196;-52
2023/09/06 08:13:05;;;;;;;7.70;4.28;;;;;;;20.65;87.17;65153.13;5051666;28;20709;-52
2023/09/06 08:15:32;;;;;;;8.38;4.10;;;;;;;20.79;85.90;65165.47;5033828;28;20236;-53
2023/09/06 08:17:58;;;;;;;11.43;6.70;;;;;;;20.97;86.64;65190.50;5050096;28;20734;-54
2023/09/06 08:20:24;;;;;;;5.10;4.35;;;;;;;21.19;85.33;65209.72;5051654;28;20193;-52
2023/09/06 08:22:49;;;;;;;10.77;4.35;;;;;;;21.19;84.08;65212.28;5051536;28;20611;-53
2023/09/06 08:25:17;;;;;;;6.63;4.75;;;;;;;21.27;82.43;65218.56;5051634;28;20212;-52
2023/09/06 08:27:42;;;;;;;5.68;4.85;;;;;;;21.50;81.79;65248.59;5033683;28;20221;-53
2023/09/06 08:30:11;;;;;;;5.35;4.38;;;;;;;21.55;80.68;65252.09;5051495;28;20557;-54
2023/09/06 08:32:40;;;;;;;7.32;4.72;;;;;;;21.83;79.91;65284.56;5033478;28;20221;-53
2023/09/06 08:35:07;;;;;;;9.15;4.70;;;;;;;21.87;78.48;65287.00;5033255;28;20205;-51
2023/09/06 08:37:34;;;;;;;7.20;4.07;;;;;;;22.03;76.77;65307.25;5051425;28;20205;-52
2023/09/06 08:40:04;;;;;;;7.72;4.32;;;;;;;22.33;76.31;65340.47;5051279;28;20197;-57
2023/09/06 08:42:33;;;;;;;5.22;4.05;;;;;;;22.10;76.05;65315.00;5051119;28;20245;-52
2023/09/06 08:45:01;;;;;;;6.75;4.20;;;;;;;21.97;76.04;65300.63;5051557;28;20188;-53
2023/09/06 08:47:28;;;;;;;7.88;4.13;;;;;;;22.11;75.46;65313.53;5051060;28;20209;-51
2023/09/06 08:49:54;;;;;;;5.03;4.43;;;;;;;22.31;76.90;65335.13;5051234;28;20193;-52
2023/09/06 08:52:22;;;;;;;7.00;4.55;;;;;;;22.42;78.23;65347.31;5033167;28;20610;-52
2023/09/06 08:54:50;;;;;;;7.22;4.57;;;;;;;22.81;74.96;65392.50;5051058;28;20307;-52
2023/09/06 08:57:17;;;;;;;7.85;5.10;;;;;;;22.80;70.78;65388.84;5051108;28;20216;-52
2023/09/06 08:59:43;;;;;;;5.07;4.57;;;;;;;22.84;70.99;65391.25;5051148;28;20209;-56
2023/09/06 09:02:14;;;;;;;7.60;5.60;;;;;;;22.99;68.13;65410.44;5050868;28;20715;-52
2023/09/06 09:04:43;;;;;;;5.05;4.55;;;;;;;23.04;68.85;65415.97;5032990;28;20633;-53
2023/09/06 09:07:10;;;;;;;9.45;5.43;;;;;;;23.27;67.16;65440.91;5051169;28;20267;-52
2023/09/06 09:09:55;;;;;;;7.55;4.47;;;;;;;23.58;67.71;65472.13;5050992;28;20197;-51
2023/09/06 09:12:28;;;;;;;7.72;4.53;;;;;;;23.57;64.29;65473.63;5032799;28;20228;-52
2023/09/06 09:14:56;;;;;;;5.40;4.43;;;;;;;23.96;68.45;65516.81;5033199;28;20227;-51
2023/09/06 09:17:23;;;;;;;7.47;5.10;;;;;;;24.45;66.52;65568.06;5050813;28;20217;-52
2023/09/06 09:19:50;;;;;;;7.18;5.03;;;;;;;24.89;66.39;65617.44;5032816;28;20208;-53
2023/09/06 09:22:26;;;;;;;7.13;5.15;;;;;;;25.14;62.27;65646.66;5050693;28;20220;-53
2023/09/06 09:25:02;;;;;;;6.50;4.53;;;;;;;24.78;62.62;65607.25;5050968;28;20193;-52
2023/09/06 09:27:28;;;;;;;6.80;4.63;;;;;;;24.22;62.09;65545.13;5050998;28;20209;-53
2023/09/06 09:29:59;;;;;;;5.55;4.65;;;;;;;24.13;63.38;65535.72;5032030;28;20198;-52
2023/09/06 09:32:25;;;;;;;8.05;4.95;;;;;;;24.37;61.97;65561.75;5050790;28;20221;-52
2023/09/06 09:34:52;;;;;;;5.25;4.65;;;;;;;24.49;63.49;65575.63;5050506;28;20581;-53
2023/09/06 09:37:19;;;;;;;7.55;5.60;;;;;;;24.38;66.66;65562.88;5050830;28;20300;-52
2023/09/06 09:39:45;;;;;;;6.10;4.95;;;;;;;24.60;60.85;65589.84;5032655;28;20197;-55
2023/09/06 09:42:12;;;;;;;7.38;5.22;;;;;;;24.34;62.91;65555.88;5050611;28;20228;-51
2023/09/06 09:44:39;;;;;;;8.68;4.70;;;;;;;24.37;62.54;65561.75;5049103;28;20205;-52
2023/09/06 09:47:13;;;;;;;5.53;5.00;;;;;;;24.55;61.71;65582.28;5033006;28;20240;-51
2023/09/06 09:49:41;;;;;;;9.73;5.53;;;;;;;24.54;60.18;65578.03;5050553;28;20188;-52
2023/09/06 09:52:16;;;;;;;5.82;5.13;;;;;;;24.33;61.19;65554.75;5050481;28;20213;-53
2023/09/06 09:54:45;;;;;;;8.48;5.30;;;;;;;24.09;60.16;65531.84;5050278;28;20248;-53
2023/09/06 09:57:12;;;;;;;11.35;5.57;;;;;;;24.13;61.12;65536.25;5050366;28;20246;-52
2023/09/06 09:59:38;;;;;;;7.78;5.32;;;;;;;24.16;62.19;65536.44;5032381;28;20730;-53
2023/09/06 10:02:05;;;;;;;8.50;5.55;;;;;;;23.96;66.60;65514.81;5050356;28;20213;-53
2023/09/06 10:04:42;;;;;;;6.68;5.13;;;;;;;23.74;64.62;65495.56;5050169;28;20288;-53
2023/09/06 10:07:09;;;;;;;6.10;5.00;;;;;;;24.01;64.42;65522.38;5050070;28;20220;-52
2023/09/06 10:09:39;;;;;;;5.63;5.05;;;;;;;23.79;64.69;65498.00;5032459;28;20202;-52
2023/09/06 10:12:08;;;;;;;6.97;5.13;;;;;;;23.87;65.27;65506.88;5049869;28;20266;-58
2023/09/06 10:14:37;;;;;;;8.73;5.22;;;;;;;23.70;64.71;65490.59;5032274;28;20296;-52
2023/09/06 10:17:04;;;;;;;5.82;5.03;;;;;;;23.64;65.31;65481.34;5050267;28;20209;-52
2023/09/06 10:19:30;;;;;;;9.43;6.25;;;;;;;23.66;64.97;65486.16;5050189;28;20431;-53
2023/09/06 10:21:56;;;;;;;6.47;5.45;;;;;;;23.57;61.92;65471.59;5050299;28;20700;-53
2023/09/06 10:24:23;;;;;;;7.15;5.45;;;;;;;23.47;62.92;65462.53;5049949;28;20210;-51
2023/09/06 10:26:53;;;;;;;9.23;5.68;;;;;;;23.50;62.58;65463.28;5031905;28;20258;-52
2023/09/06 10:29:23;;;;;;;11.30;5.57;;;;;;;23.63;62.25;65480.25;5049788;28;20210;-52
2023/09/06 10:31:51;;;;;;;6.90;4.45;;;;;;;23.61;63.52;65478.03;5031887;28;20213;-53
2023/09/06 10:34:18;;;;;;;8.93;5.35;;;;;;;23.63;62.38;65478.25;5049855;28;20209;-55
2023/09/06 10:36:51;;;;;;;6.60;5.80;;;;;;;23.77;61.37;65493.19;5049805;28;20213;-51
2023/09/06 10:39:21;;;;;;;7.85;4.80;;;;;;;23.98;60.57;65516.47;5049916;28;20213;-51
2023/09/06 10:42:11;;;;;;;6.57;4.82;;;;;;;24.05;58.94;65527.41;5044495;22;20222;-53
2023/09/06 10:44:54;;;;;;;8.23;6.07;;;;;;;24.17;60.45;65540.13;5053129;28;20315;-52
2023/09/06 10:47:28;;;;;;;11.68;5.18;;;;;;;24.22;58.83;65543.09;5040241;28;20209;-52
2023/09/06 10:50:16;;;;;;;8.32;6.40;;;;;;;25.06;61.95;65637.75;5033121;28;20745;-52
2023/09/06 10:53:02;;;;;;;9.38;6.03;;;;;;;25.20;58.89;65650.72;5033462;28;20744;-52
2023/09/06 10:55:30;;;;;;;8.23;5.03;;;;;;;25.03;59.07;65631.88;5033275;28;20665;-51
2023/09/06 10:57:58;;;;;;;10.27;5.00;;;;;;;24.82;60.57;65609.69;5031585;28;20301;-52
2023/09/06 11:00:27;;;;;;;7.40;5.20;;;;;;;24.85;59.93;65615.00;5033086;28;20198;-54
2023/09/06 11:03:08;;;;;;;6.40;5.28;;;;;;;25.36;57.33;65668.47;5032589;28;20218;-53
2023/09/06 11:05:42;;;;;;;7.55;5.38;;;;;;;25.23;58.13;65654.59;5032828;28;20202;-52
2023/09/06 11:08:09;;;;;;;6.75;5.50;;;;;;;24.93;60.20;65624.44;5031395;28;20209;-52
2023/09/06 11:10:36;;;;;;;7.10;5.70;;;;;;;24.93;59.74;65621.31;5032593;28;20588;-53
2023/09/06 11:13:12;;;;;;;7.30;5.85;;;;;;;24.87;60.67;65617.78;5048245;28;20268;-55
2023/09/06 11:15:39;;;;;;;7.68;5.50;;;;;;;24.65;61.67;65593.38;5032821;28;20189;-60
2023/09/06 11:18:05;;;;;;;7.82;5.60;;;;;;;24.42;63.66;65567.84;5033039;28;20309;-53
2023/09/06 11:20:35;;;;;;;9.32;5.25;;;;;;;24.33;64.28;65554.75;5031272;28;20202;-53
2023/09/06 11:23:02;;;;;;;9.10;5.90;;;;;;;24.16;66.44;65541.59;5032699;28;20218;-53
2023/09/06 11:25:34;;;;;;;7.53;5.15;;;;;;;24.01;67.22;65522.38;5032550;28;20201;-53
2023/09/06 11:28:13;;;;;;;7.15;5.20;;;;;;;23.90;68.54;65507.59;5032725;28;20213;-52
2023/09/06 11:30:39;;;;;;;7.78;5.38;;;;;;;23.79;69.56;65495.41;5032308;28;20210;-53
2023/09/06 11:33:07;;;;;;;5.43;4.93;;;;;;;23.95;70.04;65513.16;5032313;28;20783;-53
2023/09/06 11:35:40;;;;;;;8.65;5.40;;;;;;;24.13;71.05;65530.56;5031145;28;20260;-52
2023/09/06 11:38:12;;;;;;;7.60;5.85;;;;;;;24.19;69.04;65542.34;5032135;28;20190;-53
2023/09/06 11:40:41;;;;;;;6.50;5.18;;;;;;;24.03;69.28;65525.19;5032503;28;20210;-52